sensor_id;sensor_type;location;lat;lon;timestamp;P1;durP1;ratioP1;P2;durP2;ratioP2
35644;SDS011;21764;52.042;6.830;2023-05-21T00:00:08;9.23;;;6.43;;
35644;SDS011;21764;52.042;6.830;2023-05-21T00:05:11;11.77;;;5.90;;
35644;SDS011;21764;52.042;6.830;2023-05-21T00:10:13;11.80;;;6.45;;
35644;SDS011;21764;52.042;6.830;2023-05-21T00:15:14;10.52;;;6.50;;
35644;SDS011;21764;52.042;6.830;2023-05-21T00:20:15;9.93;;;6.20;;
35644;SDS011;21764;52.042;6.830;2023-05-21T00:25:16;11.52;;;6.00;;
35644;SDS011;21764;52.042;6.830;2023-05-21T00:30:17;8.57;;;6.38;;
35644;SDS011;21764;52.042;6.830;2023-05-21T00:35:17;11.85;;;6.60;;
35644;SDS011;21764;52.042;6.830;2023-05-21T00:40:18;11.38;;;6.53;;
35644;SDS011;21764;52.042;6.830;2023-05-21T00:45:20;12.73;;;6.18;;
35644;SDS011;21764;52.042;6.830;2023-05-21T00:50:23;13.60;;;6.80;;
35644;SDS011;21764;52.042;6.830;2023-05-21T00:55:25;10.02;;;6.30;;
35644;SDS011;21764;52.042;6.830;2023-05-21T01:00:25;11.32;;;6.30;;
35644;SDS011;21764;52.042;6.830;2023-05-21T01:05:27;11.57;;;5.72;;
35644;SDS011;21764;52.042;6.830;2023-05-21T01:10:28;11.70;;;6.18;;
35644;SDS011;21764;52.042;6.830;2023-05-21T01:15:29;11.32;;;5.95;;
35644;SDS011;21764;52.042;6.830;2023-05-21T01:20:31;11.55;;;6.30;;
35644;SDS011;21764;52.042;6.830;2023-05-21T01:25:33;9.85;;;6.45;;
35644;SDS011;21764;52.042;6.830;2023-05-21T01:30:34;13.32;;;6.40;;
35644;SDS011;21764;52.042;6.830;2023-05-21T01:36:22;13.38;;;6.78;;
35644;SDS011;21764;52.042;6.830;2023-05-21T01:41:15;12.57;;;7.50;;
35644;SDS011;21764;52.042;6.830;2023-05-21T01:46:19;10.85;;;7.13;;
35644;SDS011;21764;52.042;6.830;2023-05-21T01:51:22;9.63;;;7.15;;
35644;SDS011;21764;52.042;6.830;2023-05-21T01:56:25;12.20;;;7.20;;
35644;SDS011;21764;52.042;6.830;2023-05-21T02:01:27;9.95;;;7.25;;
35644;SDS011;21764;52.042;6.830;2023-05-21T02:06:31;13.85;;;7.68;;
35644;SDS011;21764;52.042;6.830;2023-05-21T02:11:31;9.98;;;7.40;;
35644;SDS011;21764;52.042;6.830;2023-05-21T02:16:32;12.70;;;7.75;;
35644;SDS011;21764;52.042;6.830;2023-05-21T02:21:33;11.60;;;7.82;;
35644;SDS011;21764;52.042;6.830;2023-05-21T02:26:34;13.63;;;7.35;;
35644;SDS011;21764;52.042;6.830;2023-05-21T02:31:35;12.18;;;7.78;;
35644;SDS011;21764;52.042;6.830;2023-05-21T02:36:35;9.93;;;7.75;;
35644;SDS011;21764;52.042;6.830;2023-05-21T02:41:36;12.82;;;8.27;;
35644;SDS011;21764;52.042;6.830;2023-05-21T02:46:37;12.15;;;8.60;;
35644;SDS011;21764;52.042;6.830;2023-05-21T02:51:37;14.90;;;8.75;;
35644;SDS011;21764;52.042;6.830;2023-05-21T02:56:38;14.32;;;9.02;;
35644;SDS011;21764;52.042;6.830;2023-05-21T03:01:39;17.55;;;9.10;;
35644;SDS011;21764;52.042;6.830;2023-05-21T03:06:40;11.63;;;8.80;;
35644;SDS011;21764;52.042;6.830;2023-05-21T03:11:41;13.10;;;9.20;;
35644;SDS011;21764;52.042;6.830;2023-05-21T03:16:42;11.70;;;9.20;;
35644;SDS011;21764;52.042;6.830;2023-05-21T03:21:43;15.88;;;9.00;;
35644;SDS011;21764;52.042;6.830;2023-05-21T03:26:44;17.05;;;9.88;;
35644;SDS011;21764;52.042;6.830;2023-05-21T03:31:47;11.65;;;9.55;;
35644;SDS011;21764;52.042;6.830;2023-05-21T03:36:47;14.50;;;9.18;;
35644;SDS011;21764;52.042;6.830;2023-05-21T03:41:50;15.73;;;9.68;;
35644;SDS011;21764;52.042;6.830;2023-05-21T03:46:50;14.68;;;10.30;;
35644;SDS011;21764;52.042;6.830;2023-05-21T03:51:51;13.50;;;9.50;;
35644;SDS011;21764;52.042;6.830;2023-05-21T03:56:51;20.40;;;10.48;;
35644;SDS011;21764;52.042;6.830;2023-05-21T04:01:52;25.27;;;10.43;;
35644;SDS011;21764;52.042;6.830;2023-05-21T04:06:53;17.23;;;10.75;;
35644;SDS011;21764;52.042;6.830;2023-05-21T04:11:54;17.40;;;10.23;;
35644;SDS011;21764;52.042;6.830;2023-05-21T04:16:55;15.55;;;11.27;;
35644;SDS011;21764;52.042;6.830;2023-05-21T04:21:55;12.13;;;9.88;;
35644;SDS011;21764;52.042;6.830;2023-05-21T04:26:57;15.88;;;10.77;;
35644;SDS011;21764;52.042;6.830;2023-05-21T04:32:00;16.23;;;10.45;;
35644;SDS011;21764;52.042;6.830;2023-05-21T04:37:00;16.67;;;10.32;;
35644;SDS011;21764;52.042;6.830;2023-05-21T04:42:01;12.40;;;10.45;;
35644;SDS011;21764;52.042;6.830;2023-05-21T04:47:03;18.75;;;10.93;;
35644;SDS011;21764;52.042;6.830;2023-05-21T04:52:03;17.77;;;10.30;;
35644;SDS011;21764;52.042;6.830;2023-05-21T04:57:05;13.90;;;9.98;;
35644;SDS011;21764;52.042;6.830;2023-05-21T05:02:05;18.70;;;10.57;;
35644;SDS011;21764;52.042;6.830;2023-05-21T05:07:06;14.50;;;10.68;;
35644;SDS011;21764;52.042;6.830;2023-05-21T05:12:07;18.10;;;10.25;;
35644;SDS011;21764;52.042;6.830;2023-05-21T05:17:07;13.05;;;9.70;;
35644;SDS011;21764;52.042;6.830;2023-05-21T05:22:09;12.63;;;9.43;;
35644;SDS011;21764;52.042;6.830;2023-05-21T05:27:10;14.95;;;9.95;;
35644;SDS011;21764;52.042;6.830;2023-05-21T05:32:10;15.20;;;9.35;;
35644;SDS011;21764;52.042;6.830;2023-05-21T05:37:11;13.55;;;9.15;;
35644;SDS011;21764;52.042;6.830;2023-05-21T05:42:12;15.43;;;10.20;;
35644;SDS011;21764;52.042;6.830;2023-05-21T05:47:12;17.13;;;9.85;;
35644;SDS011;21764;52.042;6.830;2023-05-21T05:52:13;17.48;;;10.20;;
35644;SDS011;21764;52.042;6.830;2023-05-21T05:57:14;14.85;;;10.32;;
35644;SDS011;21764;52.042;6.830;2023-05-21T06:02:14;13.52;;;9.95;;
35644;SDS011;21764;52.042;6.830;2023-05-21T06:07:15;14.20;;;9.75;;
35644;SDS011;21764;52.042;6.830;2023-05-21T06:12:16;16.80;;;10.63;;
35644;SDS011;21764;52.042;6.830;2023-05-21T06:17:16;15.13;;;10.10;;
35644;SDS011;21764;52.042;6.830;2023-05-21T06:22:17;13.75;;;9.90;;
35644;SDS011;21764;52.042;6.830;2023-05-21T06:27:18;19.00;;;9.15;;
35644;SDS011;21764;52.042;6.830;2023-05-21T06:32:18;14.32;;;9.48;;
35644;SDS011;21764;52.042;6.830;2023-05-21T06:37:20;15.75;;;9.20;;
35644;SDS011;21764;52.042;6.830;2023-05-21T06:42:21;16.17;;;8.95;;
35644;SDS011;21764;52.042;6.830;2023-05-21T06:47:21;12.05;;;8.30;;
35644;SDS011;21764;52.042;6.830;2023-05-21T06:52:22;13.05;;;8.38;;
35644;SDS011;21764;52.042;6.830;2023-05-21T06:57:23;14.57;;;8.93;;
35644;SDS011;21764;52.042;6.830;2023-05-21T07:02:24;16.38;;;8.95;;
35644;SDS011;21764;52.042;6.830;2023-05-21T07:07:25;13.82;;;9.07;;
35644;SDS011;21764;52.042;6.830;2023-05-21T07:12:26;16.30;;;9.52;;
35644;SDS011;21764;52.042;6.830;2023-05-21T07:17:26;12.77;;;8.75;;
35644;SDS011;21764;52.042;6.830;2023-05-21T07:22:27;11.68;;;7.47;;
35644;SDS011;21764;52.042;6.830;2023-05-21T07:27:28;11.23;;;8.10;;
35644;SDS011;21764;52.042;6.830;2023-05-21T07:32:28;9.98;;;7.82;;
35644;SDS011;21764;52.042;6.830;2023-05-21T07:37:29;11.32;;;7.90;;
35644;SDS011;21764;52.042;6.830;2023-05-21T07:42:30;12.50;;;8.93;;
35644;SDS011;21764;52.042;6.830;2023-05-21T07:47:31;12.32;;;9.13;;
35644;SDS011;21764;52.042;6.830;2023-05-21T07:52:31;12.48;;;9.30;;
35644;SDS011;21764;52.042;6.830;2023-05-21T07:57:32;12.60;;;9.00;;
35644;SDS011;21764;52.042;6.830;2023-05-21T08:02:34;13.88;;;9.00;;
35644;SDS011;21764;52.042;6.830;2023-05-21T08:07:35;13.48;;;8.73;;
35644;SDS011;21764;52.042;6.830;2023-05-21T08:12:36;15.75;;;8.73;;
35644;SDS011;21764;52.042;6.830;2023-05-21T08:17:37;14.40;;;9.40;;
35644;SDS011;21764;52.042;6.830;2023-05-21T08:22:37;16.27;;;9.57;;
35644;SDS011;21764;52.042;6.830;2023-05-21T08:27:38;16.27;;;9.65;;
35644;SDS011;21764;52.042;6.830;2023-05-21T08:32:39;13.25;;;9.70;;
35644;SDS011;21764;52.042;6.830;2023-05-21T08:37:39;14.85;;;9.93;;
35644;SDS011;21764;52.042;6.830;2023-05-21T08:42:44;14.10;;;9.70;;
35644;SDS011;21764;52.042;6.830;2023-05-21T08:47:46;19.30;;;11.13;;
35644;SDS011;21764;52.042;6.830;2023-05-21T08:52:48;14.10;;;10.45;;
35644;SDS011;21764;52.042;6.830;2023-05-21T08:57:49;16.42;;;11.45;;
35644;SDS011;21764;52.042;6.830;2023-05-21T09:02:53;16.93;;;12.03;;
35644;SDS011;21764;52.042;6.830;2023-05-21T09:07:58;23.48;;;13.32;;
35644;SDS011;21764;52.042;6.830;2023-05-21T09:13:11;16.38;;;12.45;;
35644;SDS011;21764;52.042;6.830;2023-05-21T09:18:12;21.80;;;13.02;;
35644;SDS011;21764;52.042;6.830;2023-05-21T09:23:16;16.38;;;12.13;;
35644;SDS011;21764;52.042;6.830;2023-05-21T09:28:17;17.03;;;12.17;;
35644;SDS011;21764;52.042;6.830;2023-05-21T09:33:25;19.98;;;12.88;;
35644;SDS011;21764;52.042;6.830;2023-05-21T09:38:28;17.60;;;12.57;;
35644;SDS011;21764;52.042;6.830;2023-05-21T09:43:29;20.08;;;12.95;;
35644;SDS011;21764;52.042;6.830;2023-05-21T09:48:34;18.52;;;13.75;;
35644;SDS011;21764;52.042;6.830;2023-05-21T09:58:50;19.63;;;15.25;;
35644;SDS011;21764;52.042;6.830;2023-05-21T10:08:56;23.70;;;18.70;;
35644;SDS011;21764;52.042;6.830;2023-05-21T10:14:05;17.33;;;15.45;;
35644;SDS011;21764;52.042;6.830;2023-05-21T10:19:08;18.23;;;16.30;;
35644;SDS011;21764;52.042;6.830;2023-05-21T10:24:12;23.23;;;15.02;;
35644;SDS011;21764;52.042;6.830;2023-05-21T10:29:13;19.58;;;14.35;;
35644;SDS011;21764;52.042;6.830;2023-05-21T10:34:15;20.73;;;15.55;;
35644;SDS011;21764;52.042;6.830;2023-05-21T10:39:16;20.10;;;15.55;;
35644;SDS011;21764;52.042;6.830;2023-05-21T10:44:29;22.40;;;14.70;;
35644;SDS011;21764;52.042;6.830;2023-05-21T10:49:56;18.67;;;15.43;;
35644;SDS011;21764;52.042;6.830;2023-05-21T10:55:14;23.33;;;16.52;;
35644;SDS011;21764;52.042;6.830;2023-05-21T11:00:23;20.92;;;16.50;;
35644;SDS011;21764;52.042;6.830;2023-05-21T11:05:50;27.83;;;16.15;;
35644;SDS011;21764;52.042;6.830;2023-05-21T11:10:54;23.83;;;16.77;;
35644;SDS011;21764;52.042;6.830;2023-05-21T11:21:04;22.75;;;15.90;;
35644;SDS011;21764;52.042;6.830;2023-05-21T11:26:07;23.58;;;16.95;;
35644;SDS011;21764;52.042;6.830;2023-05-21T11:31:23;20.67;;;15.60;;
35644;SDS011;21764;52.042;6.830;2023-05-21T11:36:25;27.42;;;17.15;;
35644;SDS011;21764;52.042;6.830;2023-05-21T11:41:27;26.77;;;18.15;;
35644;SDS011;21764;52.042;6.830;2023-05-21T11:46:27;27.70;;;17.02;;
35644;SDS011;21764;52.042;6.830;2023-05-21T11:51:29;28.58;;;17.02;;
35644;SDS011;21764;52.042;6.830;2023-05-21T11:56:30;30.50;;;18.00;;
35644;SDS011;21764;52.042;6.830;2023-05-21T12:01:32;23.48;;;17.70;;
35644;SDS011;21764;52.042;6.830;2023-05-21T12:06:32;29.40;;;19.20;;
35644;SDS011;21764;52.042;6.830;2023-05-21T12:11:33;26.90;;;19.00;;
35644;SDS011;21764;52.042;6.830;2023-05-21T12:16:34;27.35;;;17.25;;
35644;SDS011;21764;52.042;6.830;2023-05-21T12:21:34;31.15;;;18.10;;
35644;SDS011;21764;52.042;6.830;2023-05-21T12:26:35;22.45;;;18.02;;
35644;SDS011;21764;52.042;6.830;2023-05-21T12:31:48;22.85;;;17.73;;
35644;SDS011;21764;52.042;6.830;2023-05-21T12:36:49;27.33;;;17.63;;
35644;SDS011;21764;52.042;6.830;2023-05-21T12:41:52;27.75;;;19.77;;
35644;SDS011;21764;52.042;6.830;2023-05-21T12:46:53;27.55;;;18.05;;
35644;SDS011;21764;52.042;6.830;2023-05-21T12:51:55;26.70;;;18.58;;
35644;SDS011;21764;52.042;6.830;2023-05-21T12:56:56;25.58;;;17.77;;
35644;SDS011;21764;52.042;6.830;2023-05-21T13:01:56;26.83;;;19.25;;
35644;SDS011;21764;52.042;6.830;2023-05-21T13:06:59;25.60;;;18.17;;
35644;SDS011;21764;52.042;6.830;2023-05-21T13:11:59;28.88;;;18.30;;
35644;SDS011;21764;52.042;6.830;2023-05-21T13:17:00;24.60;;;16.73;;
35644;SDS011;21764;52.042;6.830;2023-05-21T13:22:01;26.05;;;16.52;;
35644;SDS011;21764;52.042;6.830;2023-05-21T13:27:02;22.75;;;17.48;;
35644;SDS011;21764;52.042;6.830;2023-05-21T13:32:03;26.17;;;17.15;;
35644;SDS011;21764;52.042;6.830;2023-05-21T13:37:05;22.35;;;15.13;;
35644;SDS011;21764;52.042;6.830;2023-05-21T13:42:05;21.88;;;15.93;;
35644;SDS011;21764;52.042;6.830;2023-05-21T13:47:06;22.20;;;15.45;;
35644;SDS011;21764;52.042;6.830;2023-05-21T13:52:09;23.75;;;16.13;;
35644;SDS011;21764;52.042;6.830;2023-05-21T13:57:10;24.85;;;13.52;;
35644;SDS011;21764;52.042;6.830;2023-05-21T14:02:11;20.15;;;14.98;;
35644;SDS011;21764;52.042;6.830;2023-05-21T14:07:12;24.95;;;14.68;;
35644;SDS011;21764;52.042;6.830;2023-05-21T14:12:12;21.13;;;16.58;;
35644;SDS011;21764;52.042;6.830;2023-05-21T14:17:13;26.27;;;17.63;;
35644;SDS011;21764;52.042;6.830;2023-05-21T14:22:14;25.42;;;16.40;;
35644;SDS011;21764;52.042;6.830;2023-05-21T14:27:14;23.55;;;16.27;;
35644;SDS011;21764;52.042;6.830;2023-05-21T14:32:15;20.92;;;16.02;;
35644;SDS011;21764;52.042;6.830;2023-05-21T14:37:17;23.42;;;17.00;;
35644;SDS011;21764;52.042;6.830;2023-05-21T14:42:18;30.40;;;20.92;;
35644;SDS011;21764;52.042;6.830;2023-05-21T14:47:18;24.40;;;15.43;;
35644;SDS011;21764;52.042;6.830;2023-05-21T14:52:19;30.42;;;18.92;;
35644;SDS011;21764;52.042;6.830;2023-05-21T14:57:20;22.35;;;15.23;;
35644;SDS011;21764;52.042;6.830;2023-05-21T15:02:21;21.35;;;14.40;;
35644;SDS011;21764;52.042;6.830;2023-05-21T15:07:21;25.23;;;16.23;;
35644;SDS011;21764;52.042;6.830;2023-05-21T15:12:22;20.33;;;15.15;;
35644;SDS011;21764;52.042;6.830;2023-05-21T15:17:23;22.17;;;15.45;;
35644;SDS011;21764;52.042;6.830;2023-05-21T15:22:24;25.65;;;17.30;;
35644;SDS011;21764;52.042;6.830;2023-05-21T15:27:24;20.35;;;15.13;;
35644;SDS011;21764;52.042;6.830;2023-05-21T15:32:25;25.73;;;17.50;;
35644;SDS011;21764;52.042;6.830;2023-05-21T15:37:26;23.23;;;15.98;;
35644;SDS011;21764;52.042;6.830;2023-05-21T15:42:27;20.60;;;15.00;;
35644;SDS011;21764;52.042;6.830;2023-05-21T15:47:30;24.80;;;16.52;;
35644;SDS011;21764;52.042;6.830;2023-05-21T15:52:30;23.52;;;15.25;;
35644;SDS011;21764;52.042;6.830;2023-05-21T15:57:31;21.33;;;15.70;;
35644;SDS011;21764;52.042;6.830;2023-05-21T16:02:32;23.83;;;15.15;;
35644;SDS011;21764;52.042;6.830;2023-05-21T16:07:33;21.25;;;15.55;;
35644;SDS011;21764;52.042;6.830;2023-05-21T16:12:33;21.08;;;15.80;;
35644;SDS011;21764;52.042;6.830;2023-05-21T16:17:34;22.50;;;16.33;;
35644;SDS011;21764;52.042;6.830;2023-05-21T16:22:34;24.25;;;16.40;;
35644;SDS011;21764;52.042;6.830;2023-05-21T16:27:35;23.95;;;16.30;;
35644;SDS011;21764;52.042;6.830;2023-05-21T16:32:36;25.60;;;16.83;;
35644;SDS011;21764;52.042;6.830;2023-05-21T16:37:38;20.42;;;15.95;;
35644;SDS011;21764;52.042;6.830;2023-05-21T16:42:39;30.38;;;17.60;;
35644;SDS011;21764;52.042;6.830;2023-05-21T16:47:39;27.15;;;17.38;;
35644;SDS011;21764;52.042;6.830;2023-05-21T16:52:40;21.27;;;15.43;;
35644;SDS011;21764;52.042;6.830;2023-05-21T16:57:41;22.52;;;16.60;;
35644;SDS011;21764;52.042;6.830;2023-05-21T17:02:41;24.13;;;16.55;;
35644;SDS011;21764;52.042;6.830;2023-05-21T17:07:42;21.92;;;16.60;;
35644;SDS011;21764;52.042;6.830;2023-05-21T17:12:43;22.48;;;16.75;;
35644;SDS011;21764;52.042;6.830;2023-05-21T17:17:43;25.48;;;17.05;;
35644;SDS011;21764;52.042;6.830;2023-05-21T17:22:44;22.80;;;17.05;;
35644;SDS011;21764;52.042;6.830;2023-05-21T17:27:45;27.02;;;17.92;;
35644;SDS011;21764;52.042;6.830;2023-05-21T17:32:45;25.83;;;17.40;;
35644;SDS011;21764;52.042;6.830;2023-05-21T17:37:46;27.98;;;17.67;;
35644;SDS011;21764;52.042;6.830;2023-05-21T17:42:47;25.77;;;17.98;;
35644;SDS011;21764;52.042;6.830;2023-05-21T17:47:47;25.33;;;18.52;;
35644;SDS011;21764;52.042;6.830;2023-05-21T17:52:48;27.42;;;19.45;;
35644;SDS011;21764;52.042;6.830;2023-05-21T17:57:49;31.30;;;20.10;;
35644;SDS011;21764;52.042;6.830;2023-05-21T18:02:49;26.40;;;20.23;;
35644;SDS011;21764;52.042;6.830;2023-05-21T18:07:50;25.52;;;18.08;;
35644;SDS011;21764;52.042;6.830;2023-05-21T18:12:51;31.52;;;21.92;;
35644;SDS011;21764;52.042;6.830;2023-05-21T18:17:52;37.85;;;20.70;;
35644;SDS011;21764;52.042;6.830;2023-05-21T18:22:52;41.05;;;31.25;;
35644;SDS011;21764;52.042;6.830;2023-05-21T18:27:53;31.48;;;24.08;;
35644;SDS011;21764;52.042;6.830;2023-05-21T18:32:54;32.88;;;25.13;;
35644;SDS011;21764;52.042;6.830;2023-05-21T18:37:54;27.08;;;20.45;;
35644;SDS011;21764;52.042;6.830;2023-05-21T18:42:56;26.23;;;19.55;;
35644;SDS011;21764;52.042;6.830;2023-05-21T18:47:56;26.92;;;20.27;;
35644;SDS011;21764;52.042;6.830;2023-05-21T18:52:58;29.85;;;19.77;;
35644;SDS011;21764;52.042;6.830;2023-05-21T18:57:59;30.23;;;19.50;;
35644;SDS011;21764;52.042;6.830;2023-05-21T19:03:00;27.35;;;19.02;;
35644;SDS011;21764;52.042;6.830;2023-05-21T19:08:01;30.40;;;19.20;;
35644;SDS011;21764;52.042;6.830;2023-05-21T19:13:02;25.63;;;19.23;;
35644;SDS011;21764;52.042;6.830;2023-05-21T19:18:03;27.83;;;20.38;;
35644;SDS011;21764;52.042;6.830;2023-05-21T19:23:04;28.52;;;20.60;;
35644;SDS011;21764;52.042;6.830;2023-05-21T19:28:05;35.60;;;22.70;;
35644;SDS011;21764;52.042;6.830;2023-05-21T19:33:05;28.08;;;20.48;;
35644;SDS011;21764;52.042;6.830;2023-05-21T19:38:08;29.17;;;20.77;;
35644;SDS011;21764;52.042;6.830;2023-05-21T19:43:09;28.80;;;20.30;;
35644;SDS011;21764;52.042;6.830;2023-05-21T19:48:11;29.42;;;20.98;;
35644;SDS011;21764;52.042;6.830;2023-05-21T19:53:12;27.90;;;20.52;;
35644;SDS011;21764;52.042;6.830;2023-05-21T19:58:13;27.25;;;20.45;;
35644;SDS011;21764;52.042;6.830;2023-05-21T20:03:16;27.00;;;20.27;;
35644;SDS011;21764;52.042;6.830;2023-05-21T20:08:17;28.42;;;21.38;;
35644;SDS011;21764;52.042;6.830;2023-05-21T20:13:19;31.25;;;22.35;;
35644;SDS011;21764;52.042;6.830;2023-05-21T20:18:20;32.42;;;22.65;;
35644;SDS011;21764;52.042;6.830;2023-05-21T20:23:21;36.97;;;22.40;;
35644;SDS011;21764;52.042;6.830;2023-05-21T20:28:22;29.80;;;22.13;;
35644;SDS011;21764;52.042;6.830;2023-05-21T20:33:23;31.50;;;22.80;;
35644;SDS011;21764;52.042;6.830;2023-05-21T20:38:24;29.48;;;22.02;;
35644;SDS011;21764;52.042;6.830;2023-05-21T20:43:25;30.23;;;22.88;;
35644;SDS011;21764;52.042;6.830;2023-05-21T20:48:28;32.55;;;23.77;;
35644;SDS011;21764;52.042;6.830;2023-05-21T20:53:30;35.97;;;25.05;;
35644;SDS011;21764;52.042;6.830;2023-05-21T20:58:32;35.15;;;24.85;;
35644;SDS011;21764;52.042;6.830;2023-05-21T21:03:33;39.38;;;24.42;;
35644;SDS011;21764;52.042;6.830;2023-05-21T21:08:34;31.98;;;21.20;;
35644;SDS011;21764;52.042;6.830;2023-05-21T21:13:35;31.63;;;23.13;;
35644;SDS011;21764;52.042;6.830;2023-05-21T21:18:36;26.40;;;18.25;;
35644;SDS011;21764;52.042;6.830;2023-05-21T21:23:36;20.45;;;16.25;;
35644;SDS011;21764;52.042;6.830;2023-05-21T21:28:37;26.65;;;15.38;;
35644;SDS011;21764;52.042;6.830;2023-05-21T21:33:38;20.00;;;15.05;;
35644;SDS011;21764;52.042;6.830;2023-05-21T21:38:38;18.70;;;14.63;;
35644;SDS011;21764;52.042;6.830;2023-05-21T21:43:39;27.17;;;15.93;;
35644;SDS011;21764;52.042;6.830;2023-05-21T21:48:41;27.50;;;17.80;;
35644;SDS011;21764;52.042;6.830;2023-05-21T21:53:42;21.02;;;15.18;;
35644;SDS011;21764;52.042;6.830;2023-05-21T21:58:43;24.00;;;17.23;;
35644;SDS011;21764;52.042;6.830;2023-05-21T22:03:44;24.90;;;18.67;;
35644;SDS011;21764;52.042;6.830;2023-05-21T22:08:45;21.20;;;17.20;;
35644;SDS011;21764;52.042;6.830;2023-05-21T22:13:46;26.02;;;18.20;;
35644;SDS011;21764;52.042;6.830;2023-05-21T22:18:48;25.02;;;18.50;;
35644;SDS011;21764;52.042;6.830;2023-05-21T22:23:50;26.70;;;19.38;;
35644;SDS011;21764;52.042;6.830;2023-05-21T22:28:51;32.00;;;19.77;;
35644;SDS011;21764;52.042;6.830;2023-05-21T22:33:52;28.27;;;19.35;;
35644;SDS011;21764;52.042;6.830;2023-05-21T22:38:53;28.00;;;20.67;;
35644;SDS011;21764;52.042;6.830;2023-05-21T22:43:54;29.90;;;22.15;;
35644;SDS011;21764;52.042;6.830;2023-05-21T22:48:55;30.38;;;22.65;;
35644;SDS011;21764;52.042;6.830;2023-05-21T22:53:57;29.83;;;22.65;;
35644;SDS011;21764;52.042;6.830;2023-05-21T22:58:58;32.28;;;24.13;;
35644;SDS011;21764;52.042;6.830;2023-05-21T23:03:59;35.40;;;25.52;;
35644;SDS011;21764;52.042;6.830;2023-05-21T23:09:00;39.33;;;25.75;;
35644;SDS011;21764;52.042;6.830;2023-05-21T23:14:01;32.22;;;25.27;;
35644;SDS011;21764;52.042;6.830;2023-05-21T23:19:02;36.85;;;27.33;;
35644;SDS011;21764;52.042;6.830;2023-05-21T23:24:03;34.75;;;26.90;;
35644;SDS011;21764;52.042;6.830;2023-05-21T23:29:04;38.10;;;27.52;;
35644;SDS011;21764;52.042;6.830;2023-05-21T23:34:05;38.83;;;29.17;;
35644;SDS011;21764;52.042;6.830;2023-05-21T23:39:06;41.88;;;29.23;;
35644;SDS011;21764;52.042;6.830;2023-05-21T23:44:08;44.50;;;29.38;;
35644;SDS011;21764;52.042;6.830;2023-05-21T23:49:10;41.65;;;28.60;;
35644;SDS011;21764;52.042;6.830;2023-05-21T23:54:11;38.40;;;29.65;;
35644;SDS011;21764;52.042;6.830;2023-05-21T23:59:12;42.13;;;30.45;;
